sensor_id;sensor_type;location;lat;lon;timestamp;P1;durP1;ratioP1;P2;durP2;ratioP2
27422;SDS011;14878;50.778;0.258;2022-09-16T00:00:42;6.22;;;2.40;;
27422;SDS011;14878;50.778;0.258;2022-09-16T00:01:44;4.72;;;2.05;;
27422;SDS011;14878;50.778;0.258;2022-09-16T00:02:45;5.72;;;2.17;;
27422;SDS011;14878;50.778;0.258;2022-09-16T00:03:46;5.13;;;2.20;;
27422;SDS011;14878;50.778;0.258;2022-09-16T00:04:47;5.25;;;2.05;;
27422;SDS011;14878;50.778;0.258;2022-09-16T00:05:49;6.57;;;1.90;;
27422;SDS011;14878;50.778;0.258;2022-09-16T00:06:52;4.32;;;2.05;;
27422;SDS011;14878;50.778;0.258;2022-09-16T00:07:53;5.23;;;2.07;;
27422;SDS011;14878;50.778;0.258;2022-09-16T00:08:55;6.15;;;2.03;;
27422;SDS011;14878;50.778;0.258;2022-09-16T00:09:57;7.25;;;2.40;;
27422;SDS011;14878;50.778;0.258;2022-09-16T00:10:58;3.47;;;1.85;;
27422;SDS011;14878;50.778;0.258;2022-09-16T00:12:01;6.60;;;1.83;;
27422;SDS011;14878;50.778;0.258;2022-09-16T00:13:02;5.25;;;2.35;;
27422;SDS011;14878;50.778;0.258;2022-09-16T00:14:03;6.60;;;1.95;;
27422;SDS011;14878;50.778;0.258;2022-09-16T00:15:04;5.50;;;1.90;;
27422;SDS011;14878;50.778;0.258;2022-09-16T00:16:16;7.13;;;2.05;;
27422;SDS011;14878;50.778;0.258;2022-09-16T00:17:22;7.60;;;2.10;;
27422;SDS011;14878;50.778;0.258;2022-09-16T00:18:23;4.70;;;1.77;;
27422;SDS011;14878;50.778;0.258;2022-09-16T00:19:24;5.53;;;1.73;;
27422;SDS011;14878;50.778;0.258;2022-09-16T00:20:25;3.80;;;1.92;;
27422;SDS011;14878;50.778;0.258;2022-09-16T00:21:27;6.80;;;2.22;;
27422;SDS011;14878;50.778;0.258;2022-09-16T00:22:29;3.97;;;1.85;;
27422;SDS011;14878;50.778;0.258;2022-09-16T00:23:30;4.30;;;1.73;;
27422;SDS011;14878;50.778;0.258;2022-09-16T00:24:30;4.27;;;2.00;;
27422;SDS011;14878;50.778;0.258;2022-09-16T00:25:31;5.55;;;1.90;;
27422;SDS011;14878;50.778;0.258;2022-09-16T00:26:32;6.90;;;1.90;;
27422;SDS011;14878;50.778;0.258;2022-09-16T00:27:33;4.43;;;1.50;;
27422;SDS011;14878;50.778;0.258;2022-09-16T00:28:34;6.15;;;2.00;;
27422;SDS011;14878;50.778;0.258;2022-09-16T00:29:35;7.63;;;1.80;;
27422;SDS011;14878;50.778;0.258;2022-09-16T00:30:36;3.37;;;2.00;;
27422;SDS011;14878;50.778;0.258;2022-09-16T00:31:36;6.47;;;2.03;;
27422;SDS011;14878;50.778;0.258;2022-09-16T00:32:37;7.88;;;1.63;;
27422;SDS011;14878;50.778;0.258;2022-09-16T00:33:38;3.63;;;1.87;;
27422;SDS011;14878;50.778;0.258;2022-09-16T00:34:39;7.18;;;2.40;;
27422;SDS011;14878;50.778;0.258;2022-09-16T00:35:39;5.72;;;1.75;;
27422;SDS011;14878;50.778;0.258;2022-09-16T00:36:40;7.30;;;2.15;;
27422;SDS011;14878;50.778;0.258;2022-09-16T00:37:41;6.17;;;1.90;;
27422;SDS011;14878;50.778;0.258;2022-09-16T00:38:42;4.75;;;2.08;;
27422;SDS011;14878;50.778;0.258;2022-09-16T00:39:43;6.20;;;2.08;;
27422;SDS011;14878;50.778;0.258;2022-09-16T00:40:47;5.35;;;2.17;;
27422;SDS011;14878;50.778;0.258;2022-09-16T00:41:48;3.75;;;2.00;;
27422;SDS011;14878;50.778;0.258;2022-09-16T00:42:49;5.93;;;2.67;;
27422;SDS011;14878;50.778;0.258;2022-09-16T00:46:03;6.45;;;2.53;;
27422;SDS011;14878;50.778;0.258;2022-09-16T00:47:04;6.53;;;2.30;;
27422;SDS011;14878;50.778;0.258;2022-09-16T00:48:06;6.07;;;2.35;;
27422;SDS011;14878;50.778;0.258;2022-09-16T00:49:23;5.35;;;2.58;;
27422;SDS011;14878;50.778;0.258;2022-09-16T00:51:42;6.20;;;2.40;;
27422;SDS011;14878;50.778;0.258;2022-09-16T00:52:47;6.38;;;2.60;;
27422;SDS011;14878;50.778;0.258;2022-09-16T00:53:51;6.32;;;2.55;;
27422;SDS011;14878;50.778;0.258;2022-09-16T00:54:56;6.53;;;2.57;;
27422;SDS011;14878;50.778;0.258;2022-09-16T00:56:02;4.57;;;2.63;;
27422;SDS011;14878;50.778;0.258;2022-09-16T00:57:06;3.97;;;2.50;;
27422;SDS011;14878;50.778;0.258;2022-09-16T00:58:18;5.65;;;3.08;;
27422;SDS011;14878;50.778;0.258;2022-09-16T00:59:33;6.32;;;2.75;;
27422;SDS011;14878;50.778;0.258;2022-09-16T01:00:36;7.57;;;2.80;;
27422;SDS011;14878;50.778;0.258;2022-09-16T01:01:37;8.85;;;3.35;;
27422;SDS011;14878;50.778;0.258;2022-09-16T01:02:40;9.13;;;3.10;;
27422;SDS011;14878;50.778;0.258;2022-09-16T01:03:50;4.72;;;2.70;;
27422;SDS011;14878;50.778;0.258;2022-09-16T01:05:00;11.90;;;3.50;;
27422;SDS011;14878;50.778;0.258;2022-09-16T01:06:04;11.13;;;3.60;;
27422;SDS011;14878;50.778;0.258;2022-09-16T01:07:06;6.70;;;3.22;;
27422;SDS011;14878;50.778;0.258;2022-09-16T01:08:07;5.93;;;3.20;;
27422;SDS011;14878;50.778;0.258;2022-09-16T01:09:07;7.47;;;3.28;;
27422;SDS011;14878;50.778;0.258;2022-09-16T01:10:09;6.63;;;3.15;;
27422;SDS011;14878;50.778;0.258;2022-09-16T01:11:11;9.23;;;3.47;;
27422;SDS011;14878;50.778;0.258;2022-09-16T01:12:12;7.90;;;3.40;;
27422;SDS011;14878;50.778;0.258;2022-09-16T01:13:13;7.43;;;3.40;;
27422;SDS011;14878;50.778;0.258;2022-09-16T01:14:14;6.83;;;3.20;;
27422;SDS011;14878;50.778;0.258;2022-09-16T01:16:57;7.90;;;3.42;;
27422;SDS011;14878;50.778;0.258;2022-09-16T01:18:52;9.18;;;4.05;;
27422;SDS011;14878;50.778;0.258;2022-09-16T01:22:19;9.95;;;3.92;;
27422;SDS011;14878;50.778;0.258;2022-09-16T01:24:48;7.07;;;3.50;;
27422;SDS011;14878;50.778;0.258;2022-09-16T01:27:32;7.78;;;3.90;;
27422;SDS011;14878;50.778;0.258;2022-09-16T01:32:59;9.00;;;3.78;;
27422;SDS011;14878;50.778;0.258;2022-09-16T01:38:21;6.95;;;3.25;;
27422;SDS011;14878;50.778;0.258;2022-09-16T01:44:54;7.63;;;3.30;;
27422;SDS011;14878;50.778;0.258;2022-09-16T01:46:14;6.95;;;3.60;;
27422;SDS011;14878;50.778;0.258;2022-09-16T01:47:37;10.45;;;3.05;;
27422;SDS011;14878;50.778;0.258;2022-09-16T01:48:54;6.43;;;3.00;;
27422;SDS011;14878;50.778;0.258;2022-09-16T01:51:56;7.05;;;2.95;;
27422;SDS011;14878;50.778;0.258;2022-09-16T01:53:24;8.00;;;3.10;;
27422;SDS011;14878;50.778;0.258;2022-09-16T01:54:41;6.57;;;2.92;;
27422;SDS011;14878;50.778;0.258;2022-09-16T01:56:59;9.00;;;3.30;;
27422;SDS011;14878;50.778;0.258;2022-09-16T02:00:42;5.88;;;2.85;;
27422;SDS011;14878;50.778;0.258;2022-09-16T02:01:49;6.68;;;2.80;;
27422;SDS011;14878;50.778;0.258;2022-09-16T02:03:01;6.90;;;3.30;;
27422;SDS011;14878;50.778;0.258;2022-09-16T02:04:16;5.82;;;2.80;;
27422;SDS011;14878;50.778;0.258;2022-09-16T02:05:27;5.95;;;2.40;;
27422;SDS011;14878;50.778;0.258;2022-09-16T02:06:48;6.40;;;3.08;;
27422;SDS011;14878;50.778;0.258;2022-09-16T02:07:53;6.68;;;2.55;;
27422;SDS011;14878;50.778;0.258;2022-09-16T02:09:08;5.55;;;2.80;;
27422;SDS011;14878;50.778;0.258;2022-09-16T02:10:27;5.95;;;2.80;;
27422;SDS011;14878;50.778;0.258;2022-09-16T02:11:31;6.65;;;3.15;;
27422;SDS011;14878;50.778;0.258;2022-09-16T02:12:34;8.75;;;2.97;;
27422;SDS011;14878;50.778;0.258;2022-09-16T02:13:39;7.40;;;2.80;;
27422;SDS011;14878;50.778;0.258;2022-09-16T02:14:43;7.20;;;2.90;;
27422;SDS011;14878;50.778;0.258;2022-09-16T02:15:47;7.75;;;3.13;;
27422;SDS011;14878;50.778;0.258;2022-09-16T02:18:00;7.80;;;2.78;;
27422;SDS011;14878;50.778;0.258;2022-09-16T02:19:14;5.63;;;2.45;;
27422;SDS011;14878;50.778;0.258;2022-09-16T02:20:21;9.82;;;2.90;;
27422;SDS011;14878;50.778;0.258;2022-09-16T02:21:26;6.68;;;2.55;;
27422;SDS011;14878;50.778;0.258;2022-09-16T02:22:35;5.50;;;2.72;;
27422;SDS011;14878;50.778;0.258;2022-09-16T02:23:41;7.45;;;2.83;;
27422;SDS011;14878;50.778;0.258;2022-09-16T02:24:49;10.63;;;2.70;;
27422;SDS011;14878;50.778;0.258;2022-09-16T02:25:51;5.45;;;2.53;;
27422;SDS011;14878;50.778;0.258;2022-09-16T02:26:55;5.55;;;2.25;;
27422;SDS011;14878;50.778;0.258;2022-09-16T02:28:02;6.32;;;2.50;;
27422;SDS011;14878;50.778;0.258;2022-09-16T02:29:08;8.90;;;2.70;;
27422;SDS011;14878;50.778;0.258;2022-09-16T02:30:17;9.15;;;2.33;;
27422;SDS011;14878;50.778;0.258;2022-09-16T02:31:23;7.68;;;2.78;;
27422;SDS011;14878;50.778;0.258;2022-09-16T02:32:29;7.38;;;2.88;;
27422;SDS011;14878;50.778;0.258;2022-09-16T02:33:34;5.90;;;2.38;;
27422;SDS011;14878;50.778;0.258;2022-09-16T02:34:40;6.40;;;2.85;;
27422;SDS011;14878;50.778;0.258;2022-09-16T02:35:46;6.72;;;2.30;;
27422;SDS011;14878;50.778;0.258;2022-09-16T02:36:51;9.00;;;2.58;;
27422;SDS011;14878;50.778;0.258;2022-09-16T02:38:00;9.43;;;2.80;;
27422;SDS011;14878;50.778;0.258;2022-09-16T02:39:15;4.70;;;2.40;;
27422;SDS011;14878;50.778;0.258;2022-09-16T02:40:27;5.88;;;2.20;;
27422;SDS011;14878;50.778;0.258;2022-09-16T02:41:32;6.00;;;2.65;;
27422;SDS011;14878;50.778;0.258;2022-09-16T02:42:33;7.20;;;2.50;;
27422;SDS011;14878;50.778;0.258;2022-09-16T02:43:34;7.37;;;2.40;;
27422;SDS011;14878;50.778;0.258;2022-09-16T02:44:35;4.57;;;2.17;;
27422;SDS011;14878;50.778;0.258;2022-09-16T02:45:39;8.70;;;2.53;;
27422;SDS011;14878;50.778;0.258;2022-09-16T02:49:53;4.80;;;1.83;;
27422;SDS011;14878;50.778;0.258;2022-09-16T02:52:35;6.18;;;2.20;;
27422;SDS011;14878;50.778;0.258;2022-09-16T02:53:44;5.28;;;2.08;;
27422;SDS011;14878;50.778;0.258;2022-09-16T02:55:14;5.30;;;2.10;;
27422;SDS011;14878;50.778;0.258;2022-09-16T02:56:28;5.30;;;2.03;;
27422;SDS011;14878;50.778;0.258;2022-09-16T02:57:32;5.25;;;2.30;;
27422;SDS011;14878;50.778;0.258;2022-09-16T02:58:33;5.32;;;2.25;;
27422;SDS011;14878;50.778;0.258;2022-09-16T02:59:33;8.43;;;2.37;;
27422;SDS011;14878;50.778;0.258;2022-09-16T03:00:36;6.50;;;2.35;;
27422;SDS011;14878;50.778;0.258;2022-09-16T03:01:43;5.03;;;2.08;;
27422;SDS011;14878;50.778;0.258;2022-09-16T03:02:45;6.03;;;2.17;;
27422;SDS011;14878;50.778;0.258;2022-09-16T03:03:46;6.30;;;1.98;;
27422;SDS011;14878;50.778;0.258;2022-09-16T03:04:47;7.33;;;2.23;;
27422;SDS011;14878;50.778;0.258;2022-09-16T03:07:18;5.07;;;2.10;;
27422;SDS011;14878;50.778;0.258;2022-09-16T03:08:18;6.95;;;2.15;;
27422;SDS011;14878;50.778;0.258;2022-09-16T03:09:19;4.95;;;2.20;;
27422;SDS011;14878;50.778;0.258;2022-09-16T03:10:24;6.93;;;2.25;;
27422;SDS011;14878;50.778;0.258;2022-09-16T03:12:49;5.05;;;1.92;;
27422;SDS011;14878;50.778;0.258;2022-09-16T03:16:01;4.53;;;2.08;;
27422;SDS011;14878;50.778;0.258;2022-09-16T03:20:21;7.53;;;2.20;;
27422;SDS011;14878;50.778;0.258;2022-09-16T03:28:05;4.35;;;1.92;;
27422;SDS011;14878;50.778;0.258;2022-09-16T03:30:41;5.72;;;2.03;;
27422;SDS011;14878;50.778;0.258;2022-09-16T03:33:09;6.57;;;1.73;;
27422;SDS011;14878;50.778;0.258;2022-09-16T03:34:29;7.15;;;1.80;;
27422;SDS011;14878;50.778;0.258;2022-09-16T03:35:38;7.13;;;2.20;;
27422;SDS011;14878;50.778;0.258;2022-09-16T03:37:04;3.72;;;1.67;;
27422;SDS011;14878;50.778;0.258;2022-09-16T03:38:07;8.60;;;1.70;;
27422;SDS011;14878;50.778;0.258;2022-09-16T03:39:11;5.88;;;1.98;;
27422;SDS011;14878;50.778;0.258;2022-09-16T03:40:13;4.45;;;1.70;;
27422;SDS011;14878;50.778;0.258;2022-09-16T03:41:16;4.53;;;2.08;;
27422;SDS011;14878;50.778;0.258;2022-09-16T03:42:17;5.10;;;1.92;;
27422;SDS011;14878;50.778;0.258;2022-09-16T03:43:19;6.80;;;2.40;;
27422;SDS011;14878;50.778;0.258;2022-09-16T03:44:20;3.73;;;1.63;;
27422;SDS011;14878;50.778;0.258;2022-09-16T03:45:29;7.60;;;2.05;;
27422;SDS011;14878;50.778;0.258;2022-09-16T03:46:30;5.15;;;2.00;;
27422;SDS011;14878;50.778;0.258;2022-09-16T03:47:31;3.25;;;1.70;;
27422;SDS011;14878;50.778;0.258;2022-09-16T03:48:32;7.00;;;1.90;;
27422;SDS011;14878;50.778;0.258;2022-09-16T03:49:33;6.27;;;2.00;;
27422;SDS011;14878;50.778;0.258;2022-09-16T03:50:34;7.03;;;1.85;;
27422;SDS011;14878;50.778;0.258;2022-09-16T03:51:35;3.85;;;1.83;;
27422;SDS011;14878;50.778;0.258;2022-09-16T03:52:36;7.33;;;2.13;;
27422;SDS011;14878;50.778;0.258;2022-09-16T03:53:39;3.65;;;1.70;;
27422;SDS011;14878;50.778;0.258;2022-09-16T03:54:39;4.15;;;1.80;;
27422;SDS011;14878;50.778;0.258;2022-09-16T03:55:40;6.60;;;1.80;;
27422;SDS011;14878;50.778;0.258;2022-09-16T03:56:41;6.63;;;1.95;;
27422;SDS011;14878;50.778;0.258;2022-09-16T03:57:41;6.75;;;1.88;;
27422;SDS011;14878;50.778;0.258;2022-09-16T03:58:42;5.72;;;1.80;;
27422;SDS011;14878;50.778;0.258;2022-09-16T03:59:43;4.27;;;1.77;;
27422;SDS011;14878;50.778;0.258;2022-09-16T04:00:47;4.28;;;1.77;;
27422;SDS011;14878;50.778;0.258;2022-09-16T04:01:49;5.03;;;1.80;;
27422;SDS011;14878;50.778;0.258;2022-09-16T04:02:50;5.55;;;1.85;;
27422;SDS011;14878;50.778;0.258;2022-09-16T04:03:51;4.25;;;1.77;;
27422;SDS011;14878;50.778;0.258;2022-09-16T04:04:52;6.55;;;2.00;;
27422;SDS011;14878;50.778;0.258;2022-09-16T04:05:53;4.67;;;1.80;;
27422;SDS011;14878;50.778;0.258;2022-09-16T04:06:55;4.75;;;1.85;;
27422;SDS011;14878;50.778;0.258;2022-09-16T04:07:55;4.25;;;1.70;;
27422;SDS011;14878;50.778;0.258;2022-09-16T04:08:56;4.93;;;1.75;;
27422;SDS011;14878;50.778;0.258;2022-09-16T04:09:59;5.45;;;1.80;;
27422;SDS011;14878;50.778;0.258;2022-09-16T04:11:01;4.22;;;1.58;;
27422;SDS011;14878;50.778;0.258;2022-09-16T04:12:07;4.80;;;1.90;;
27422;SDS011;14878;50.778;0.258;2022-09-16T04:13:08;5.82;;;1.85;;
27422;SDS011;14878;50.778;0.258;2022-09-16T04:14:08;4.28;;;1.60;;
27422;SDS011;14878;50.778;0.258;2022-09-16T04:15:10;5.25;;;1.90;;
27422;SDS011;14878;50.778;0.258;2022-09-16T04:16:17;3.92;;;1.60;;
27422;SDS011;14878;50.778;0.258;2022-09-16T04:17:22;4.93;;;1.90;;
27422;SDS011;14878;50.778;0.258;2022-09-16T04:18:23;5.70;;;1.92;;
27422;SDS011;14878;50.778;0.258;2022-09-16T04:19:25;3.95;;;1.58;;
27422;SDS011;14878;50.778;0.258;2022-09-16T04:20:25;4.95;;;1.95;;
27422;SDS011;14878;50.778;0.258;2022-09-16T04:21:26;4.50;;;1.83;;
27422;SDS011;14878;50.778;0.258;2022-09-16T04:22:28;5.72;;;1.70;;
27422;SDS011;14878;50.778;0.258;2022-09-16T04:23:30;5.50;;;1.80;;
27422;SDS011;14878;50.778;0.258;2022-09-16T04:24:31;4.88;;;1.90;;
27422;SDS011;14878;50.778;0.258;2022-09-16T04:25:32;3.90;;;1.43;;
27422;SDS011;14878;50.778;0.258;2022-09-16T04:26:32;6.45;;;1.95;;
27422;SDS011;14878;50.778;0.258;2022-09-16T04:27:33;4.05;;;1.70;;
27422;SDS011;14878;50.778;0.258;2022-09-16T04:28:34;4.20;;;1.55;;
27422;SDS011;14878;50.778;0.258;2022-09-16T04:29:35;5.10;;;1.67;;
27422;SDS011;14878;50.778;0.258;2022-09-16T04:30:36;5.20;;;1.77;;
27422;SDS011;14878;50.778;0.258;2022-09-16T04:31:37;7.82;;;2.10;;
27422;SDS011;14878;50.778;0.258;2022-09-16T04:32:38;5.97;;;1.88;;
27422;SDS011;14878;50.778;0.258;2022-09-16T04:33:39;6.90;;;1.63;;
27422;SDS011;14878;50.778;0.258;2022-09-16T04:34:40;4.68;;;1.90;;
27422;SDS011;14878;50.778;0.258;2022-09-16T04:35:42;3.35;;;1.73;;
27422;SDS011;14878;50.778;0.258;2022-09-16T04:36:43;5.50;;;1.98;;
27422;SDS011;14878;50.778;0.258;2022-09-16T04:37:44;5.35;;;1.80;;
27422;SDS011;14878;50.778;0.258;2022-09-16T04:38:45;5.88;;;1.90;;
27422;SDS011;14878;50.778;0.258;2022-09-16T04:39:47;4.80;;;1.77;;
27422;SDS011;14878;50.778;0.258;2022-09-16T04:40:48;5.32;;;1.85;;
27422;SDS011;14878;50.778;0.258;2022-09-16T04:41:49;7.78;;;1.77;;
27422;SDS011;14878;50.778;0.258;2022-09-16T04:42:50;4.90;;;1.90;;
27422;SDS011;14878;50.778;0.258;2022-09-16T04:43:51;7.28;;;2.00;;
27422;SDS011;14878;50.778;0.258;2022-09-16T04:44:56;5.38;;;2.00;;
27422;SDS011;14878;50.778;0.258;2022-09-16T04:45:56;4.87;;;1.77;;
27422;SDS011;14878;50.778;0.258;2022-09-16T04:46:58;4.55;;;1.73;;
27422;SDS011;14878;50.778;0.258;2022-09-16T04:47:59;5.87;;;1.80;;
27422;SDS011;14878;50.778;0.258;2022-09-16T04:48:59;5.30;;;1.77;;
27422;SDS011;14878;50.778;0.258;2022-09-16T04:50:00;5.97;;;1.73;;
27422;SDS011;14878;50.778;0.258;2022-09-16T04:51:02;4.90;;;1.90;;
27422;SDS011;14878;50.778;0.258;2022-09-16T04:52:08;2.97;;;1.67;;
27422;SDS011;14878;50.778;0.258;2022-09-16T04:53:10;6.47;;;1.95;;
27422;SDS011;14878;50.778;0.258;2022-09-16T04:54:10;5.88;;;1.73;;
27422;SDS011;14878;50.778;0.258;2022-09-16T04:55:11;4.88;;;1.63;;
27422;SDS011;14878;50.778;0.258;2022-09-16T04:56:13;6.10;;;1.90;;
27422;SDS011;14878;50.778;0.258;2022-09-16T04:57:14;3.60;;;1.92;;
27422;SDS011;14878;50.778;0.258;2022-09-16T04:58:15;6.45;;;1.80;;
27422;SDS011;14878;50.778;0.258;2022-09-16T04:59:16;5.80;;;2.17;;
27422;SDS011;14878;50.778;0.258;2022-09-16T05:00:17;4.00;;;1.58;;
27422;SDS011;14878;50.778;0.258;2022-09-16T05:01:19;5.97;;;1.70;;
27422;SDS011;14878;50.778;0.258;2022-09-16T05:02:26;3.88;;;1.65;;
27422;SDS011;14878;50.778;0.258;2022-09-16T05:03:28;6.65;;;1.85;;
27422;SDS011;14878;50.778;0.258;2022-09-16T05:04:29;3.95;;;1.90;;
27422;SDS011;14878;50.778;0.258;2022-09-16T05:05:30;6.85;;;1.88;;
27422;SDS011;14878;50.778;0.258;2022-09-16T05:06:31;5.25;;;1.83;;
27422;SDS011;14878;50.778;0.258;2022-09-16T05:07:34;6.22;;;2.30;;
27422;SDS011;14878;50.778;0.258;2022-09-16T05:08:35;4.97;;;2.10;;
27422;SDS011;14878;50.778;0.258;2022-09-16T05:09:36;6.55;;;2.10;;
27422;SDS011;14878;50.778;0.258;2022-09-16T05:10:37;4.25;;;1.90;;
27422;SDS011;14878;50.778;0.258;2022-09-16T05:11:38;4.93;;;1.80;;
27422;SDS011;14878;50.778;0.258;2022-09-16T05:12:40;5.07;;;2.03;;
27422;SDS011;14878;50.778;0.258;2022-09-16T05:13:40;6.90;;;2.20;;
27422;SDS011;14878;50.778;0.258;2022-09-16T05:14:41;5.00;;;2.13;;
27422;SDS011;14878;50.778;0.258;2022-09-16T05:15:42;5.60;;;2.20;;
27422;SDS011;14878;50.778;0.258;2022-09-16T05:16:43;5.07;;;2.00;;
27422;SDS011;14878;50.778;0.258;2022-09-16T05:17:44;5.65;;;2.10;;
27422;SDS011;14878;50.778;0.258;2022-09-16T05:18:46;4.28;;;1.80;;
27422;SDS011;14878;50.778;0.258;2022-09-16T05:19:47;6.63;;;2.00;;
27422;SDS011;14878;50.778;0.258;2022-09-16T05:20:48;5.23;;;1.90;;
27422;SDS011;14878;50.778;0.258;2022-09-16T05:21:49;4.70;;;1.83;;
27422;SDS011;14878;50.778;0.258;2022-09-16T05:22:50;4.33;;;2.20;;
27422;SDS011;14878;50.778;0.258;2022-09-16T05:23:51;4.28;;;1.80;;
27422;SDS011;14878;50.778;0.258;2022-09-16T05:24:52;4.40;;;2.00;;
27422;SDS011;14878;50.778;0.258;2022-09-16T05:25:53;6.73;;;2.17;;
27422;SDS011;14878;50.778;0.258;2022-09-16T05:26:54;7.30;;;2.13;;
27422;SDS011;14878;50.778;0.258;2022-09-16T05:27:55;5.32;;;1.90;;
27422;SDS011;14878;50.778;0.258;2022-09-16T05:29:03;4.65;;;1.90;;
27422;SDS011;14878;50.778;0.258;2022-09-16T05:30:07;5.05;;;1.90;;
27422;SDS011;14878;50.778;0.258;2022-09-16T05:32:10;4.85;;;1.85;;
27422;SDS011;14878;50.778;0.258;2022-09-16T05:33:11;7.30;;;2.10;;
27422;SDS011;14878;50.778;0.258;2022-09-16T05:34:17;3.28;;;1.77;;
27422;SDS011;14878;50.778;0.258;2022-09-16T05:35:20;4.68;;;1.90;;
27422;SDS011;14878;50.778;0.258;2022-09-16T05:36:21;6.53;;;2.05;;
27422;SDS011;14878;50.778;0.258;2022-09-16T05:37:22;3.85;;;1.63;;
27422;SDS011;14878;50.778;0.258;2022-09-16T05:38:23;7.05;;;2.10;;
27422;SDS011;14878;50.778;0.258;2022-09-16T05:39:24;4.50;;;1.80;;
27422;SDS011;14878;50.778;0.258;2022-09-16T05:40:24;4.78;;;1.80;;
27422;SDS011;14878;50.778;0.258;2022-09-16T05:41:26;4.88;;;1.60;;
27422;SDS011;14878;50.778;0.258;2022-09-16T05:42:27;7.10;;;2.60;;
27422;SDS011;14878;50.778;0.258;2022-09-16T05:43:28;6.68;;;1.90;;
27422;SDS011;14878;50.778;0.258;2022-09-16T05:44:28;6.53;;;2.40;;
27422;SDS011;14878;50.778;0.258;2022-09-16T05:45:30;6.85;;;2.13;;
27422;SDS011;14878;50.778;0.258;2022-09-16T05:46:30;6.65;;;2.00;;
27422;SDS011;14878;50.778;0.258;2022-09-16T05:47:32;3.55;;;2.03;;
27422;SDS011;14878;50.778;0.258;2022-09-16T05:48:33;3.65;;;1.83;;
27422;SDS011;14878;50.778;0.258;2022-09-16T05:49:35;4.80;;;2.00;;
27422;SDS011;14878;50.778;0.258;2022-09-16T05:50:36;5.35;;;1.88;;
27422;SDS011;14878;50.778;0.258;2022-09-16T05:51:37;5.60;;;1.70;;
27422;SDS011;14878;50.778;0.258;2022-09-16T05:52:40;6.97;;;2.00;;
27422;SDS011;14878;50.778;0.258;2022-09-16T05:53:41;4.38;;;1.90;;
27422;SDS011;14878;50.778;0.258;2022-09-16T05:54:42;5.90;;;2.10;;
27422;SDS011;14878;50.778;0.258;2022-09-16T05:55:52;4.27;;;1.80;;
27422;SDS011;14878;50.778;0.258;2022-09-16T05:57:01;4.35;;;1.83;;
27422;SDS011;14878;50.778;0.258;2022-09-16T05:58:03;4.88;;;2.10;;
27422;SDS011;14878;50.778;0.258;2022-09-16T05:59:04;6.15;;;1.77;;
27422;SDS011;14878;50.778;0.258;2022-09-16T06:00:05;4.53;;;1.88;;
27422;SDS011;14878;50.778;0.258;2022-09-16T06:01:07;6.00;;;1.77;;
27422;SDS011;14878;50.778;0.258;2022-09-16T06:02:10;5.38;;;2.03;;
27422;SDS011;14878;50.778;0.258;2022-09-16T06:03:11;4.65;;;2.10;;
27422;SDS011;14878;50.778;0.258;2022-09-16T06:04:13;8.13;;;2.00;;
27422;SDS011;14878;50.778;0.258;2022-09-16T06:05:14;4.10;;;1.90;;
27422;SDS011;14878;50.778;0.258;2022-09-16T06:06:20;6.70;;;1.92;;
27422;SDS011;14878;50.778;0.258;2022-09-16T06:07:22;5.15;;;1.80;;
27422;SDS011;14878;50.778;0.258;2022-09-16T06:08:22;4.60;;;1.90;;
27422;SDS011;14878;50.778;0.258;2022-09-16T06:09:23;5.32;;;1.67;;
27422;SDS011;14878;50.778;0.258;2022-09-16T06:10:24;11.35;;;2.58;;
27422;SDS011;14878;50.778;0.258;2022-09-16T06:11:26;6.07;;;1.80;;
27422;SDS011;14878;50.778;0.258;2022-09-16T06:12:27;6.93;;;1.70;;
27422;SDS011;14878;50.778;0.258;2022-09-16T06:13:28;5.55;;;2.10;;
27422;SDS011;14878;50.778;0.258;2022-09-16T06:14:29;6.13;;;1.77;;
27422;SDS011;14878;50.778;0.258;2022-09-16T06:15:30;7.65;;;2.30;;
27422;SDS011;14878;50.778;0.258;2022-09-16T06:16:31;4.80;;;1.85;;
27422;SDS011;14878;50.778;0.258;2022-09-16T06:17:32;3.97;;;1.80;;
27422;SDS011;14878;50.778;0.258;2022-09-16T06:18:33;6.18;;;1.83;;
27422;SDS011;14878;50.778;0.258;2022-09-16T06:19:34;5.28;;;2.10;;
27422;SDS011;14878;50.778;0.258;2022-09-16T06:20:35;4.72;;;1.75;;
27422;SDS011;14878;50.778;0.258;2022-09-16T06:21:36;7.65;;;2.03;;
27422;SDS011;14878;50.778;0.258;2022-09-16T06:22:38;6.70;;;2.00;;
27422;SDS011;14878;50.778;0.258;2022-09-16T06:23:39;5.20;;;1.92;;
27422;SDS011;14878;50.778;0.258;2022-09-16T06:24:40;3.83;;;1.80;;
27422;SDS011;14878;50.778;0.258;2022-09-16T06:25:41;5.80;;;1.70;;
27422;SDS011;14878;50.778;0.258;2022-09-16T06:26:42;4.35;;;2.08;;
27422;SDS011;14878;50.778;0.258;2022-09-16T06:27:44;3.08;;;1.58;;
27422;SDS011;14878;50.778;0.258;2022-09-16T06:28:45;5.07;;;1.87;;
27422;SDS011;14878;50.778;0.258;2022-09-16T06:29:47;4.30;;;1.77;;
27422;SDS011;14878;50.778;0.258;2022-09-16T06:30:47;7.32;;;2.10;;
27422;SDS011;14878;50.778;0.258;2022-09-16T06:31:48;6.10;;;2.25;;
27422;SDS011;14878;50.778;0.258;2022-09-16T06:32:49;5.70;;;1.70;;
27422;SDS011;14878;50.778;0.258;2022-09-16T06:33:51;6.13;;;1.83;;
27422;SDS011;14878;50.778;0.258;2022-09-16T06:34:52;3.72;;;1.63;;
27422;SDS011;14878;50.778;0.258;2022-09-16T06:35:53;5.23;;;1.90;;
27422;SDS011;14878;50.778;0.258;2022-09-16T06:36:55;5.88;;;1.90;;
27422;SDS011;14878;50.778;0.258;2022-09-16T06:37:56;4.53;;;1.70;;
27422;SDS011;14878;50.778;0.258;2022-09-16T06:38:58;6.50;;;1.83;;
27422;SDS011;14878;50.778;0.258;2022-09-16T06:39:59;4.45;;;1.90;;
27422;SDS011;14878;50.778;0.258;2022-09-16T06:41:01;5.40;;;2.23;;
27422;SDS011;14878;50.778;0.258;2022-09-16T06:42:05;4.95;;;1.63;;
27422;SDS011;14878;50.778;0.258;2022-09-16T06:43:07;6.78;;;2.00;;
27422;SDS011;14878;50.778;0.258;2022-09-16T06:44:07;6.00;;;2.10;;
27422;SDS011;14878;50.778;0.258;2022-09-16T06:45:09;5.97;;;1.80;;
27422;SDS011;14878;50.778;0.258;2022-09-16T06:46:15;5.45;;;1.88;;
27422;SDS011;14878;50.778;0.258;2022-09-16T06:47:20;6.07;;;2.00;;
27422;SDS011;14878;50.778;0.258;2022-09-16T06:48:21;3.85;;;1.80;;
27422;SDS011;14878;50.778;0.258;2022-09-16T06:49:22;4.45;;;1.63;;
27422;SDS011;14878;50.778;0.258;2022-09-16T06:50:23;4.60;;;1.63;;
27422;SDS011;14878;50.778;0.258;2022-09-16T06:51:24;5.05;;;1.88;;
27422;SDS011;14878;50.778;0.258;2022-09-16T06:52:26;4.32;;;1.98;;
27422;SDS011;14878;50.778;0.258;2022-09-16T06:53:27;4.20;;;1.40;;
27422;SDS011;14878;50.778;0.258;2022-09-16T06:54:28;3.05;;;1.67;;
27422;SDS011;14878;50.778;0.258;2022-09-16T06:55:29;6.85;;;1.67;;
27422;SDS011;14878;50.778;0.258;2022-09-16T06:56:30;4.37;;;1.80;;
27422;SDS011;14878;50.778;0.258;2022-09-16T06:57:33;2.92;;;1.73;;
27422;SDS011;14878;50.778;0.258;2022-09-16T06:58:34;5.88;;;1.70;;
27422;SDS011;14878;50.778;0.258;2022-09-16T06:59:36;8.68;;;1.88;;
27422;SDS011;14878;50.778;0.258;2022-09-16T07:00:37;6.93;;;2.30;;
27422;SDS011;14878;50.778;0.258;2022-09-16T07:01:38;5.82;;;2.00;;
27422;SDS011;14878;50.778;0.258;2022-09-16T07:02:39;6.00;;;2.42;;
27422;SDS011;14878;50.778;0.258;2022-09-16T07:03:44;4.97;;;2.00;;
27422;SDS011;14878;50.778;0.258;2022-09-16T07:04:46;6.23;;;2.10;;
27422;SDS011;14878;50.778;0.258;2022-09-16T07:05:56;6.05;;;1.75;;
27422;SDS011;14878;50.778;0.258;2022-09-16T07:07:00;5.32;;;1.80;;
27422;SDS011;14878;50.778;0.258;2022-09-16T07:08:01;4.15;;;1.80;;
27422;SDS011;14878;50.778;0.258;2022-09-16T07:09:02;6.63;;;2.10;;
27422;SDS011;14878;50.778;0.258;2022-09-16T07:10:04;7.32;;;1.77;;
27422;SDS011;14878;50.778;0.258;2022-09-16T07:12:09;4.68;;;1.83;;
27422;SDS011;14878;50.778;0.258;2022-09-16T07:13:10;7.28;;;1.88;;
27422;SDS011;14878;50.778;0.258;2022-09-16T07:14:11;3.40;;;1.90;;
27422;SDS011;14878;50.778;0.258;2022-09-16T07:15:12;6.70;;;1.88;;
27422;SDS011;14878;50.778;0.258;2022-09-16T07:16:14;9.13;;;2.50;;
27422;SDS011;14878;50.778;0.258;2022-09-16T07:17:16;7.32;;;1.92;;
27422;SDS011;14878;50.778;0.258;2022-09-16T07:18:17;5.80;;;2.00;;